createdAt,value
2018-01-02T00:00:15.473Z,6.70
2018-01-02T00:02:44.705Z,6.70
2018-01-02T00:05:12.406Z,6.70
2018-01-02T00:07:42.412Z,6.60
2018-01-02T00:10:11.548Z,6.60
2018-01-02T00:12:39.113Z,6.60
2018-01-02T00:15:08.731Z,6.50
2018-01-02T00:17:37.165Z,6.50
2018-01-02T00:20:06.681Z,6.50
2018-01-02T00:22:36.165Z,6.50
2018-01-02T00:25:09.890Z,6.60
2018-01-02T00:27:37.372Z,6.50
2018-01-02T00:30:04.893Z,6.50
2018-01-02T00:32:32.560Z,6.60
2018-01-02T00:35:00.912Z,6.60
2018-01-02T00:37:28.533Z,6.50
2018-01-02T00:39:57.343Z,6.60
2018-01-02T00:42:24.879Z,6.60
2018-01-02T00:44:52.343Z,6.70
2018-01-02T00:47:20.610Z,6.70
2018-01-02T00:52:55.902Z,6.80
2018-01-02T00:55:26.553Z,6.80
2018-01-02T00:57:55.935Z,6.80
2018-01-02T01:00:23.738Z,6.80
2018-01-02T01:02:52.223Z,6.80
2018-01-02T01:05:20.686Z,6.80
2018-01-02T01:07:48.284Z,6.70
2018-01-02T01:10:16.036Z,6.70
2018-01-02T01:12:43.498Z,6.70
2018-01-02T01:15:10.966Z,6.70
2018-01-02T01:17:38.476Z,6.70
2018-01-02T01:20:06.725Z,6.60
2018-01-02T01:22:34.164Z,6.60
2018-01-02T01:25:01.644Z,6.60
2018-01-02T01:27:29.101Z,6.60
2018-01-02T01:29:56.589Z,6.60
2018-01-02T01:32:24.048Z,6.60
2018-01-02T01:34:51.522Z,6.60
2018-01-02T01:37:18.997Z,6.50
2018-01-02T01:39:47.268Z,6.60
2018-01-02T01:53:47.844Z,6.50
2018-01-02T01:56:16.069Z,6.50
2018-01-02T01:58:43.577Z,6.50
2018-01-02T02:01:11.035Z,6.50
2018-01-02T02:03:38.494Z,6.50
2018-01-02T02:06:05.965Z,6.50
2018-01-02T02:08:34.236Z,6.60
2018-01-02T02:11:02.882Z,6.50
2018-01-02T02:13:30.333Z,6.50
2018-01-02T02:15:57.806Z,6.50
2018-01-02T02:18:25.262Z,6.50
2018-01-02T02:20:52.737Z,6.50
2018-01-02T02:23:20.188Z,6.50
2018-01-02T02:25:47.660Z,6.50
2018-01-02T02:28:15.145Z,6.40
2018-01-02T02:30:42.598Z,6.40
2018-01-02T02:33:10.054Z,6.40
2018-01-02T02:35:37.522Z,6.40
2018-01-02T02:38:05.020Z,6.40
2018-01-02T02:40:45.445Z,6.40
2018-01-02T02:43:12.927Z,6.40
2018-01-02T02:45:40.390Z,6.40
2018-01-02T02:48:07.876Z,6.30
2018-01-02T02:50:36.852Z,6.30
2018-01-02T02:53:04.333Z,6.30
2018-01-02T02:55:41.023Z,6.30
2018-01-02T02:58:10.329Z,6.30
2018-01-02T03:00:37.893Z,6.40
2018-01-02T03:03:05.348Z,6.40
2018-01-02T03:05:32.809Z,6.40
2018-01-02T03:08:00.348Z,6.40
2018-01-02T03:10:27.816Z,6.30
2018-01-02T03:12:55.288Z,6.40
2018-01-02T04:41:54.740Z,6.70
2018-01-02T04:44:22.252Z,6.70
2018-01-02T04:46:49.704Z,6.70
2018-01-02T04:49:17.168Z,6.70
2018-01-02T04:54:51.284Z,6.70
2018-01-02T04:57:19.273Z,6.80
2018-01-02T04:59:46.770Z,6.80
2018-01-02T05:02:14.273Z,6.80
2018-01-02T05:04:41.740Z,6.70
2018-01-02T05:07:09.224Z,6.70
2018-01-02T05:09:36.678Z,6.70
2018-01-02T05:12:04.148Z,6.80
2018-01-02T05:14:31.622Z,6.80
2018-01-02T05:16:59.096Z,6.80
2018-01-02T05:19:27.847Z,6.80
2018-01-02T05:22:05.050Z,6.70
2018-01-02T05:24:35.178Z,6.80
2018-01-02T05:27:03.843Z,6.80
2018-01-02T05:29:31.381Z,6.80
2018-01-02T05:31:58.850Z,6.80
2018-01-02T05:34:26.365Z,6.80
2018-01-02T05:36:53.841Z,6.80
2018-01-02T05:39:27.164Z,6.80
2018-01-02T05:41:56.481Z,6.80
2018-01-02T05:44:23.952Z,6.80
2018-01-02T05:46:51.418Z,6.80
2018-01-02T05:49:20.429Z,6.80
2018-01-02T05:51:49.623Z,6.80
2018-01-02T05:54:17.101Z,6.80
2018-01-02T05:56:44.572Z,6.80
2018-01-02T05:59:12.036Z,6.80
2018-01-02T06:01:39.532Z,6.80
2018-01-02T06:04:07.028Z,6.80
2018-01-02T06:06:41.916Z,6.90
2018-01-02T06:09:11.248Z,6.90
2018-01-02T06:11:41.100Z,6.90
2018-01-02T06:14:09.359Z,6.90
2018-01-02T06:16:36.920Z,6.90
2018-01-02T06:19:08.796Z,6.90
2018-01-02T07:10:40.925Z,6.30
2018-01-02T07:13:09.368Z,6.20
2018-01-02T07:15:37.104Z,6.20
2018-01-02T07:18:22.181Z,6.20
2018-01-02T07:20:49.947Z,6.10
2018-01-02T07:23:17.886Z,6.10
2018-01-02T07:25:46.138Z,6.10
2018-01-02T07:28:13.708Z,6.10
2018-01-02T07:30:41.656Z,6.10
2018-01-02T07:33:09.448Z,6.10
2018-01-02T07:35:36.919Z,6.00
2018-01-02T07:38:04.394Z,6.00
2018-01-02T07:40:31.867Z,6.10
2018-01-02T07:42:59.343Z,6.10
2018-01-02T07:45:29.009Z,6.10
2018-01-02T07:47:56.472Z,6.10
2018-01-02T07:50:24.313Z,6.10
2018-01-02T07:52:51.786Z,6.00
2018-01-02T07:55:19.251Z,6.10
2018-01-02T07:57:46.724Z,6.10
2018-01-02T08:00:14.223Z,6.00
2018-01-02T08:02:41.857Z,6.10
2018-01-02T08:05:09.330Z,6.10
2018-01-02T08:07:36.822Z,6.10
2018-01-02T08:10:04.407Z,6.10
2018-01-02T08:12:34.745Z,6.10
2018-01-02T08:15:02.333Z,6.10
2018-01-02T08:17:29.959Z,6.20
2018-01-02T08:19:58.214Z,6.20
2018-01-02T08:22:25.680Z,6.20
2018-01-02T08:24:53.180Z,6.20
2018-01-02T08:27:20.716Z,6.20
2018-01-02T08:29:48.993Z,6.30
2018-01-02T08:32:16.499Z,6.20
2018-01-02T08:34:44.118Z,6.30
2018-01-02T08:37:11.789Z,6.30
2018-01-02T08:39:39.268Z,6.30
2018-01-02T08:42:07.733Z,6.40
2018-01-02T08:44:35.229Z,6.40
2018-01-02T08:47:07.232Z,6.40
2018-01-02T08:49:34.726Z,6.30
2018-01-02T08:52:04.275Z,6.40
2018-01-02T08:54:32.599Z,6.40
2018-01-02T08:57:00.364Z,6.40
2018-01-02T08:59:29.839Z,6.40
2018-01-02T09:01:59.539Z,6.40
2018-01-02T09:04:38.923Z,6.40
2018-01-02T09:07:08.243Z,6.40
2018-01-02T09:09:36.215Z,6.40
2018-01-02T09:58:13.878Z,6.60
2018-01-02T10:00:44.995Z,6.80
2018-01-02T10:03:19.639Z,6.70
2018-01-02T10:06:07.993Z,6.80
2018-01-02T10:08:35.453Z,6.80
2018-01-02T10:11:06.064Z,6.90
2018-01-02T10:13:35.999Z,6.90
2018-01-02T10:19:06.984Z,6.90
2018-01-02T10:21:34.457Z,6.90
2018-01-02T10:24:02.399Z,7.00
2018-01-02T10:26:29.872Z,7.00
2018-01-02T10:28:57.377Z,7.20
2018-01-02T10:31:24.845Z,7.20
2018-01-02T10:33:52.314Z,7.10
2018-01-02T10:36:19.775Z,7.10
2018-01-02T10:38:47.284Z,7.00
2018-01-02T10:41:18.224Z,7.10
2018-01-02T10:43:45.726Z,7.10
2018-01-02T10:46:14.101Z,7.10
2018-01-02T10:48:41.573Z,7.10
2018-01-02T10:51:09.044Z,7.20
2018-01-02T10:53:36.532Z,7.20
2018-01-02T10:56:04.866Z,7.20
2018-01-02T10:58:33.341Z,7.30
2018-01-02T11:01:01.577Z,7.20
2018-01-02T11:03:37.665Z,7.20
2018-01-02T11:06:05.155Z,7.20
2018-01-02T11:08:32.612Z,7.20
2018-01-02T11:11:05.713Z,7.20
2018-01-02T11:13:40.290Z,7.20
2018-01-02T11:55:15.865Z,7.80
2018-01-02T11:57:43.317Z,7.80
2018-01-02T12:00:10.863Z,7.80
2018-01-02T12:02:38.333Z,7.90
2018-01-02T12:05:05.808Z,7.90
2018-01-02T12:07:33.264Z,7.90
2018-01-02T12:10:00.705Z,7.90
2018-01-02T12:12:28.166Z,7.90
2018-01-02T12:14:56.456Z,7.90
2018-01-02T12:17:23.944Z,7.90
2018-01-02T12:19:51.405Z,8.00
2018-01-02T12:22:18.872Z,8.00
2018-01-02T12:24:46.316Z,8.00
2018-01-02T12:27:13.786Z,8.00
2018-01-02T12:29:41.241Z,8.00
2018-01-02T12:32:08.729Z,8.10
2018-01-02T12:34:42.441Z,8.10
2018-01-02T12:37:10.726Z,8.10
2018-01-02T12:39:38.194Z,8.10
2018-01-02T12:42:05.665Z,8.20
2018-01-02T12:44:33.136Z,8.20
2018-01-02T12:47:06.301Z,8.20
2018-01-02T12:49:34.657Z,8.10
2018-01-02T12:52:02.096Z,8.10
2018-01-02T12:54:29.572Z,8.10
2018-01-02T12:56:57.053Z,8.10
2018-01-02T12:59:24.524Z,8.10
2018-01-02T13:01:52.005Z,8.20
2018-01-02T13:04:19.504Z,8.10
2018-01-02T13:06:46.961Z,8.10
2018-01-02T13:09:16.682Z,8.20
2018-01-02T13:11:44.138Z,8.10
2018-01-02T13:14:11.596Z,8.20
2018-01-02T13:16:39.074Z,8.20
2018-01-02T13:19:06.551Z,8.20
2018-01-02T13:21:34.016Z,8.20
2018-01-02T13:24:01.465Z,8.20
2018-01-02T13:26:28.925Z,8.20
2018-01-02T13:28:56.379Z,8.20
2018-01-02T13:31:23.848Z,8.20
2018-01-02T13:42:29.567Z,8.30
2018-01-02T13:44:57.028Z,8.30
2018-01-02T13:47:25.241Z,8.30
2018-01-02T13:49:52.704Z,8.20
2018-01-02T13:52:20.186Z,8.30
2018-01-02T13:54:49.213Z,8.30
2018-01-02T13:57:16.700Z,8.30
2018-01-02T13:59:44.159Z,8.30
2018-01-02T14:05:05.983Z,8.30
2018-01-02T14:07:34.108Z,8.30
2018-01-02T15:48:32.936Z,7.50
2018-01-02T15:51:01.395Z,7.40
2018-01-02T15:53:29.439Z,7.40
2018-01-02T15:55:57.025Z,7.40
2018-01-02T15:58:24.874Z,7.40
2018-01-02T16:00:52.584Z,7.40
2018-01-02T16:03:21.082Z,7.40
2018-01-02T16:08:36.633Z,7.40
2018-01-02T16:11:05.782Z,7.40
2018-01-02T16:13:37.564Z,7.40
2018-01-02T16:16:06.017Z,7.40
2018-01-02T16:18:39.214Z,7.40
2018-01-02T16:21:06.761Z,7.40
2018-01-02T16:23:36.025Z,7.40
2018-01-02T16:26:03.714Z,7.40
2018-01-02T16:28:32.550Z,7.40
2018-01-02T16:31:01.082Z,7.40
2018-01-02T16:33:29.448Z,7.40
2018-01-02T16:35:57.410Z,7.40
2018-01-02T16:38:28.101Z,7.40
2018-01-02T16:40:55.837Z,7.40
2018-01-02T16:43:24.243Z,7.40
2018-01-02T16:45:52.250Z,7.40
2018-01-02T16:48:20.527Z,7.40
2018-01-02T16:50:52.953Z,7.40
2018-01-02T16:55:54.627Z,7.40
2018-01-02T16:58:23.360Z,7.30
2018-01-02T17:01:07.710Z,7.30
2018-01-02T17:03:36.988Z,7.30
2018-01-02T17:06:10.319Z,7.30
2018-01-02T17:11:31.971Z,7.30
2018-01-02T17:16:33.407Z,7.30
2018-01-02T17:19:01.050Z,7.30
2018-01-02T17:21:28.811Z,7.30
2018-01-02T17:24:05.735Z,7.30
2018-01-02T17:26:33.227Z,7.30
2018-01-02T17:29:01.009Z,7.30
2018-01-02T17:31:28.637Z,7.30
2018-01-02T17:34:00.609Z,7.40
2018-01-02T17:36:28.835Z,7.30
2018-01-02T17:38:56.622Z,7.30
2018-01-02T17:41:28.932Z,7.30
2018-01-02T17:43:56.721Z,7.40
2018-01-02T17:46:32.816Z,7.40
2018-01-02T17:49:01.190Z,7.40
2018-01-02T17:51:29.105Z,7.30
2018-01-02T17:53:57.434Z,7.30
2018-01-02T17:56:38.497Z,7.30
2018-01-02T17:59:10.610Z,7.30
2018-01-02T18:01:40.518Z,7.30
2018-01-02T18:04:19.994Z,7.30
2018-01-02T18:06:48.558Z,7.30
2018-01-02T18:15:05.418Z,7.40
2018-01-02T18:17:36.312Z,7.40
2018-01-02T18:20:25.039Z,7.30
2018-01-02T18:22:52.905Z,7.40
2018-01-02T18:25:21.559Z,7.40
2018-01-02T18:27:52.622Z,7.40
2018-01-02T18:30:20.302Z,7.30
2018-01-02T18:32:48.023Z,7.30
2018-01-02T18:35:16.636Z,7.30
2018-01-02T18:37:44.279Z,7.20
2018-01-02T18:40:11.900Z,7.30
2018-01-02T18:42:39.523Z,7.20
2018-01-02T18:45:09.084Z,7.20
2018-01-02T18:50:18.655Z,7.20
2018-01-02T18:52:48.095Z,7.20
2018-01-02T18:55:17.761Z,7.20
2018-01-02T18:57:45.257Z,7.20
2018-01-02T19:00:14.345Z,7.20
2018-01-02T19:02:52.687Z,7.20
2018-01-02T19:05:22.952Z,7.20
2018-01-02T19:07:50.605Z,7.20
2018-01-02T19:10:19.525Z,7.20
2018-01-02T19:12:47.101Z,7.20
2018-01-02T19:15:28.046Z,7.20
2018-01-02T19:17:56.072Z,7.20
2018-01-02T19:20:23.707Z,7.20
2018-01-02T19:22:52.242Z,7.20
2018-01-02T19:25:20.822Z,7.10
2018-01-02T19:27:50.451Z,7.20
2018-01-02T19:30:18.798Z,7.20
2018-01-02T19:32:46.653Z,7.20
2018-01-02T19:35:14.564Z,7.10
2018-01-02T19:37:43.199Z,7.10
2018-01-02T19:40:17.214Z,7.10
2018-01-02T19:48:31.326Z,7.00
2018-01-02T19:50:59.954Z,7.00
2018-01-02T19:53:31.562Z,7.00
2018-01-02T19:55:59.960Z,7.10
2018-01-02T19:58:28.285Z,7.10
2018-01-02T20:00:55.924Z,7.10
2018-01-02T20:03:23.569Z,7.10
2018-01-02T20:05:53.931Z,7.10
2018-01-02T20:10:55.561Z,7.10
2018-01-02T20:13:25.137Z,7.20
2018-01-02T20:15:52.984Z,7.10
2018-01-02T20:21:03.370Z,7.10
2018-01-02T20:23:35.429Z,7.10
2018-01-02T20:26:07.364Z,7.10
2018-01-02T20:28:45.790Z,7.10
2018-01-02T20:31:25.480Z,7.10
2018-01-02T20:33:55.484Z,7.10
2018-01-02T20:36:24.096Z,7.10
2018-01-02T20:47:31.007Z,7.10
2018-01-02T20:50:08.177Z,7.00
2018-01-02T20:52:39.249Z,7.00
2018-01-02T20:58:00.409Z,6.90
2018-01-02T21:00:38.650Z,7.00
2018-01-02T21:03:15.820Z,7.00
2018-01-02T21:05:50.437Z,6.90
2018-01-02T21:10:59.754Z,6.90
2018-01-02T21:13:36.319Z,6.90
2018-01-02T21:16:07.862Z,6.90
2018-01-02T21:18:43.979Z,7.00
2018-01-02T21:21:23.874Z,7.10
2018-01-02T21:23:52.740Z,7.20
2018-01-02T21:26:40.691Z,7.00
2018-01-02T21:29:08.917Z,6.90
2018-01-02T21:34:13.254Z,6.80
2018-01-02T21:36:44.934Z,6.70
2018-01-02T21:39:16.514Z,6.70
2018-01-02T21:41:45.536Z,6.70
2018-01-02T21:44:18.311Z,6.70
2018-01-02T21:46:49.518Z,6.70
2018-01-02T21:49:23.580Z,6.70
2018-01-02T21:51:56.134Z,6.80
2018-01-02T21:54:30.766Z,6.80
2018-01-02T21:57:01.911Z,6.80
2018-01-02T21:59:31.931Z,6.80
2018-01-02T22:02:04.992Z,6.80
2018-01-02T22:04:37.867Z,6.70
2018-01-02T22:07:09.743Z,6.70
2018-01-02T22:09:40.871Z,6.80
2018-01-02T22:12:17.059Z,6.80
2018-01-02T22:34:55.989Z,6.90
2018-01-02T22:37:33.842Z,6.90
2018-01-02T22:51:46.827Z,7.00
2018-01-02T22:54:23.753Z,7.00
2018-01-02T22:56:55.965Z,7.00
2018-01-02T22:59:25.230Z,7.00
2018-01-02T23:01:55.057Z,7.10
2018-01-02T23:04:25.720Z,7.10
2018-01-02T23:06:58.334Z,7.10
2018-01-02T23:09:29.585Z,7.10
2018-01-02T23:12:01.310Z,7.20
2018-01-02T23:14:35.544Z,7.10
2018-01-02T23:17:05.577Z,7.20
2018-01-02T23:19:37.180Z,7.10
2018-01-02T23:22:04.970Z,7.20
2018-01-02T23:24:35.554Z,7.20
2018-01-02T23:27:06.798Z,7.20
2018-01-02T23:29:40.725Z,7.20
2018-01-02T23:32:13.940Z,7.20
2018-01-02T23:37:18.849Z,7.20
2018-01-02T23:39:59.032Z,7.20
2018-01-02T23:42:30.284Z,7.20
2018-01-02T23:44:58.027Z,7.20
2018-01-02T23:47:29.482Z,7.20
2018-01-02T23:50:04.882Z,7.20
2018-01-02T23:52:33.799Z,7.20
2018-01-02T23:55:02.388Z,7.20
